sensor_id;sensor_type;location;lat;lon;timestamp;pressure;altitude;pressure_sealevel;temperature;humidity
55490;BME280;44029;52.956;4.772;2022-11-20T00:00:57;101549.44;;;0.46;100.00
55490;BME280;44029;52.956;4.772;2022-11-20T00:03:28;101553.16;;;0.45;100.00
55490;BME280;44029;52.956;4.772;2022-11-20T00:05:53;101554.34;;;0.50;100.00
55490;BME280;44029;52.956;4.772;2022-11-20T00:08:19;101546.22;;;0.42;100.00
55490;BME280;44029;52.956;4.772;2022-11-20T00:10:44;101536.59;;;0.31;100.00
55490;BME280;44029;52.956;4.772;2022-11-20T00:13:09;101538.47;;;0.31;100.00
55490;BME280;44029;52.956;4.772;2022-11-20T00:15:35;101537.94;;;0.27;100.00
55490;BME280;44029;52.956;4.772;2022-11-20T00:18:00;101545.03;;;0.28;100.00
55490;BME280;44029;52.956;4.772;2022-11-20T00:20:25;101546.56;;;0.23;100.00
55490;BME280;44029;52.956;4.772;2022-11-20T00:22:51;101546.56;;;0.23;100.00
55490;BME280;44029;52.956;4.772;2022-11-20T00:25:16;101543.84;;;0.31;100.00
55490;BME280;44029;52.956;4.772;2022-11-20T00:27:42;101547.56;;;0.30;100.00
55490;BME280;44029;52.956;4.772;2022-11-20T00:30:08;101549.09;;;0.24;100.00
55490;BME280;44029;52.956;4.772;2022-11-20T00:32:33;101546.38;;;0.24;100.00
55490;BME280;44029;52.956;4.772;2022-11-20T00:34:58;101544.84;;;0.22;100.00
55490;BME280;44029;52.956;4.772;2022-11-20T00:37:24;101546.03;;;0.27;100.00
55490;BME280;44029;52.956;4.772;2022-11-20T00:39:49;101549.91;;;0.25;100.00
55490;BME280;44029;52.956;4.772;2022-11-20T00:42:15;101547.38;;;0.15;100.00
55490;BME280;44029;52.956;4.772;2022-11-20T00:44:40;101540.44;;;0.12;100.00
55490;BME280;44029;52.956;4.772;2022-11-20T00:47:05;101544.16;;;0.11;100.00
55490;BME280;44029;52.956;4.772;2022-11-20T00:49:31;101541.13;;;0.14;100.00
55490;BME280;44029;52.956;4.772;2022-11-20T00:51:56;101546.34;;;0.08;100.00
55490;BME280;44029;52.956;4.772;2022-11-20T00:54:21;101552.56;;;0.08;100.00
55490;BME280;44029;52.956;4.772;2022-11-20T00:56:47;101545.84;;;0.12;100.00
55490;BME280;44029;52.956;4.772;2022-11-20T00:59:12;101544.13;;;0.03;100.00
55490;BME280;44029;52.956;4.772;2022-11-20T01:01:38;101534.03;;;0.05;100.00
55490;BME280;44029;52.956;4.772;2022-11-20T01:04:04;101529.50;;;0.06;100.00
55490;BME280;44029;52.956;4.772;2022-11-20T01:06:35;101523.13;;;0.15;100.00
55490;BME280;44029;52.956;4.772;2022-11-20T01:09:12;101529.00;;;0.10;100.00
55490;BME280;44029;52.956;4.772;2022-11-20T01:11:41;101526.66;;;0.15;100.00
55490;BME280;44029;52.956;4.772;2022-11-20T01:14:11;101526.03;;;0.30;100.00
55490;BME280;44029;52.956;4.772;2022-11-20T01:16:40;101531.75;;;0.51;100.00
55490;BME280;44029;52.956;4.772;2022-11-20T01:19:09;101520.28;;;0.33;100.00
55490;BME280;44029;52.956;4.772;2022-11-20T01:21:37;101522.63;;;0.28;100.00
55490;BME280;44029;52.956;4.772;2022-11-20T01:24:04;101518.09;;;0.28;100.00
55490;BME280;44029;52.956;4.772;2022-11-20T01:26:32;101515.56;;;0.27;100.00
55490;BME280;44029;52.956;4.772;2022-11-20T01:28:58;101502.41;;;0.15;100.00
55490;BME280;44029;52.956;4.772;2022-11-20T01:31:35;101503.41;;;0.14;100.00
55490;BME280;44029;52.956;4.772;2022-11-20T01:34:10;101495.66;;;0.11;100.00
55490;BME280;44029;52.956;4.772;2022-11-20T01:36:37;101481.00;;;0.06;100.00
55490;BME280;44029;52.956;4.772;2022-11-20T01:39:12;101489.25;;;0.04;100.00
55490;BME280;44029;52.956;4.772;2022-11-20T01:41:38;101489.91;;;-0.02;100.00
55490;BME280;44029;52.956;4.772;2022-11-20T01:47:21;101483.66;;;-0.03;100.00
55490;BME280;44029;52.956;4.772;2022-11-20T01:49:54;101487.03;;;-0.01;100.00
55490;BME280;44029;52.956;4.772;2022-11-20T01:52:32;101478.28;;;-0.03;100.00
55490;BME280;44029;52.956;4.772;2022-11-20T01:55:05;101484.84;;;-0.05;100.00
55490;BME280;44029;52.956;4.772;2022-11-20T01:57:33;101474.75;;;-0.03;100.00
55490;BME280;44029;52.956;4.772;2022-11-20T02:00:08;101466.00;;;0.03;100.00
55490;BME280;44029;52.956;4.772;2022-11-20T02:02:35;101455.38;;;-0.07;100.00
55490;BME280;44029;52.956;4.772;2022-11-20T02:05:09;101462.63;;;0.01;100.00
55490;BME280;44029;52.956;4.772;2022-11-20T02:07:37;101460.31;;;0.06;100.00
55490;BME280;44029;52.956;4.772;2022-11-20T02:10:03;101458.09;;;0.02;100.00
55490;BME280;44029;52.956;4.772;2022-11-20T02:12:28;101449.50;;;-0.02;100.00
55490;BME280;44029;52.956;4.772;2022-11-20T02:15:12;101449.34;;;-0.09;100.00
55490;BME280;44029;52.956;4.772;2022-11-20T02:17:37;101444.09;;;-0.02;100.00
55490;BME280;44029;52.956;4.772;2022-11-20T02:20:03;101443.78;;;-0.07;100.00
55490;BME280;44029;52.956;4.772;2022-11-20T02:22:38;101439.75;;;0.05;100.00
55490;BME280;44029;52.956;4.772;2022-11-20T02:25:11;101442.28;;;-0.02;100.00
55490;BME280;44029;52.956;4.772;2022-11-20T02:27:36;101433.00;;;-0.07;100.00
55490;BME280;44029;52.956;4.772;2022-11-20T02:30:05;101429.84;;;0.06;100.00
55490;BME280;44029;52.956;4.772;2022-11-20T02:32:36;101433.00;;;0.01;100.00
55490;BME280;44029;52.956;4.772;2022-11-20T02:37:54;101436.03;;;-0.02;100.00
55490;BME280;44029;52.956;4.772;2022-11-20T02:40:21;101435.69;;;-0.07;100.00
55490;BME280;44029;52.956;4.772;2022-11-20T02:42:47;101431.47;;;-0.10;100.00
55490;BME280;44029;52.956;4.772;2022-11-20T02:45:12;101426.75;;;-0.08;100.00
55490;BME280;44029;52.956;4.772;2022-11-20T02:47:37;101428.63;;;-0.08;100.00
55490;BME280;44029;52.956;4.772;2022-11-20T02:50:04;101431.00;;;-0.05;100.00
55490;BME280;44029;52.956;4.772;2022-11-20T02:52:29;101422.03;;;-0.14;100.00
55490;BME280;44029;52.956;4.772;2022-11-20T02:54:55;101426.09;;;-0.18;100.00
55490;BME280;44029;52.956;4.772;2022-11-20T02:57:20;101421.88;;;-0.04;100.00
55490;BME280;44029;52.956;4.772;2022-11-20T02:59:46;101410.59;;;-0.08;100.00
55490;BME280;44029;52.956;4.772;2022-11-20T03:02:11;101410.44;;;-0.06;100.00
55490;BME280;44029;52.956;4.772;2022-11-20T03:04:36;101403.34;;;-0.15;100.00
55490;BME280;44029;52.956;4.772;2022-11-20T03:07:02;101403.34;;;-0.15;100.00
55490;BME280;44029;52.956;4.772;2022-11-20T03:09:27;101393.59;;;-0.08;100.00
55490;BME280;44029;52.956;4.772;2022-11-20T03:11:53;101396.16;;;-0.07;100.00
55490;BME280;44029;52.956;4.772;2022-11-20T03:14:18;101398.69;;;-0.05;100.00
55490;BME280;44029;52.956;4.772;2022-11-20T03:16:44;101393.78;;;-0.02;100.00
55490;BME280;44029;52.956;4.772;2022-11-20T03:19:11;101391.25;;;-0.03;100.00
55490;BME280;44029;52.956;4.772;2022-11-20T03:21:36;101380.16;;;-0.08;100.00
55490;BME280;44029;52.956;4.772;2022-11-20T03:24:02;101381.34;;;-0.11;100.00
55490;BME280;44029;52.956;4.772;2022-11-20T03:26:28;101370.41;;;-0.09;100.00
55490;BME280;44029;52.956;4.772;2022-11-20T03:28:55;101374.91;;;-0.10;100.00
55490;BME280;44029;52.956;4.772;2022-11-20T03:31:27;101374.09;;;-0.10;100.00
55490;BME280;44029;52.956;4.772;2022-11-20T03:33:53;101369.19;;;-0.15;100.00
55490;BME280;44029;52.956;4.772;2022-11-20T03:36:19;101365.81;;;-0.17;100.00
55490;BME280;44029;52.956;4.772;2022-11-20T03:38:45;101356.72;;;-0.24;100.00
55490;BME280;44029;52.956;4.772;2022-11-20T03:41:13;101356.25;;;-0.20;100.00
55490;BME280;44029;52.956;4.772;2022-11-20T03:43:39;101350.34;;;-0.23;100.00
55490;BME280;44029;52.956;4.772;2022-11-20T03:46:05;101351.53;;;-0.17;100.00
55490;BME280;44029;52.956;4.772;2022-11-20T03:48:31;101354.38;;;-0.19;100.00
55490;BME280;44029;52.956;4.772;2022-11-20T03:51:07;101346.66;;;-0.14;100.00
55490;BME280;44029;52.956;4.772;2022-11-20T03:53:33;101334.03;;;-0.22;100.00
55490;BME280;44029;52.956;4.772;2022-11-20T03:55:58;101341.59;;;-0.25;100.00
55490;BME280;44029;52.956;4.772;2022-11-20T03:58:24;101338.91;;;-0.25;100.00
55490;BME280;44029;52.956;4.772;2022-11-20T04:00:49;101336.03;;;-0.24;100.00
55490;BME280;44029;52.956;4.772;2022-11-20T04:03:15;101335.38;;;-0.26;100.00
55490;BME280;44029;52.956;4.772;2022-11-20T04:05:40;101332.69;;;-0.26;100.00
55490;BME280;44029;52.956;4.772;2022-11-20T04:08:05;101322.91;;;-0.27;100.00
55490;BME280;44029;52.956;4.772;2022-11-20T04:10:31;101319.22;;;-0.26;100.00
55490;BME280;44029;52.956;4.772;2022-11-20T04:12:56;101323.06;;;-0.28;100.00
55490;BME280;44029;52.956;4.772;2022-11-20T04:15:21;101312.81;;;-0.33;100.00
55490;BME280;44029;52.956;4.772;2022-11-20T04:17:47;101316.03;;;-0.29;100.00
55490;BME280;44029;52.956;4.772;2022-11-20T04:20:12;101324.25;;;-0.31;100.00
55490;BME280;44029;52.956;4.772;2022-11-20T04:22:37;101316.19;;;-0.31;100.00
55490;BME280;44029;52.956;4.772;2022-11-20T04:25:03;101312.13;;;-0.27;100.00
55490;BME280;44029;52.956;4.772;2022-11-20T04:27:30;101320.91;;;-0.16;100.00
55490;BME280;44029;52.956;4.772;2022-11-20T04:29:55;101315.66;;;-0.26;100.00
55490;BME280;44029;52.956;4.772;2022-11-20T04:32:20;101316.19;;;-0.31;100.00
55490;BME280;44029;52.956;4.772;2022-11-20T04:34:46;101309.78;;;-0.30;100.00
55490;BME280;44029;52.956;4.772;2022-11-20T04:37:11;101308.94;;;-0.30;100.00
55490;BME280;44029;52.956;4.772;2022-11-20T04:39:36;101311.16;;;-0.26;100.00
55490;BME280;44029;52.956;4.772;2022-11-20T04:42:01;101309.44;;;-0.27;100.00
55490;BME280;44029;52.956;4.772;2022-11-20T04:44:45;101317.69;;;-0.28;100.00
55490;BME280;44029;52.956;4.772;2022-11-20T04:47:11;101323.75;;;-0.34;100.00
55490;BME280;44029;52.956;4.772;2022-11-20T04:49:36;101320.91;;;-0.33;100.00
55490;BME280;44029;52.956;4.772;2022-11-20T04:52:01;101327.94;;;-0.32;100.00
55490;BME280;44029;52.956;4.772;2022-11-20T04:54:27;101317.53;;;-0.35;100.00
55490;BME280;44029;52.956;4.772;2022-11-20T04:56:52;101312.16;;;-0.35;100.00
55490;BME280;44029;52.956;4.772;2022-11-20T04:59:17;101310.28;;;-0.26;100.00
55490;BME280;44029;52.956;4.772;2022-11-20T05:01:43;101312.81;;;-0.25;100.00
55490;BME280;44029;52.956;4.772;2022-11-20T05:04:08;101306.75;;;-0.27;100.00
55490;BME280;44029;52.956;4.772;2022-11-20T05:06:33;101312.13;;;-0.27;100.00
55490;BME280;44029;52.956;4.772;2022-11-20T05:08:59;101309.78;;;-0.30;100.00
55490;BME280;44029;52.956;4.772;2022-11-20T05:11:25;101306.09;;;-0.29;100.00
55490;BME280;44029;52.956;4.772;2022-11-20T05:13:51;101296.84;;;-0.18;100.00
55490;BME280;44029;52.956;4.772;2022-11-20T05:16:19;101301.88;;;-0.23;100.00
55490;BME280;44029;52.956;4.772;2022-11-20T05:18:45;101298.34;;;-0.24;100.00
55490;BME280;44029;52.956;4.772;2022-11-20T05:21:12;101300.69;;;-0.21;100.00
55490;BME280;44029;52.956;4.772;2022-11-20T05:23:38;101299.03;;;-0.22;100.00
55490;BME280;44029;52.956;4.772;2022-11-20T05:26:05;101301.03;;;-0.15;100.00
55490;BME280;44029;52.956;4.772;2022-11-20T05:28:32;101302.91;;;-0.16;100.00
55490;BME280;44029;52.956;4.772;2022-11-20T05:31:12;101287.41;;;-0.14;100.00
55490;BME280;44029;52.956;4.772;2022-11-20T05:33:42;101292.47;;;-0.11;100.00
55490;BME280;44029;52.956;4.772;2022-11-20T05:36:08;101298.00;;;-0.21;100.00
55490;BME280;44029;52.956;4.772;2022-11-20T05:38:34;101306.78;;;-0.18;100.00
55490;BME280;44029;52.956;4.772;2022-11-20T05:41:10;101301.03;;;-0.15;100.00
55490;BME280;44029;52.956;4.772;2022-11-20T05:43:37;101293.47;;;-0.20;100.00
55490;BME280;44029;52.956;4.772;2022-11-20T05:46:03;101283.34;;;-0.26;100.00
55490;BME280;44029;52.956;4.772;2022-11-20T05:48:29;101287.91;;;-0.27;100.00
55490;BME280;44029;52.956;4.772;2022-11-20T05:50:57;101288.94;;;-0.28;100.00
55490;BME280;44029;52.956;4.772;2022-11-20T05:53:23;101289.94;;;-0.29;100.00
55490;BME280;44029;52.956;4.772;2022-11-20T05:55:56;101298.50;;;-0.25;100.00
55490;BME280;44029;52.956;4.772;2022-11-20T05:58:22;101291.78;;;-0.37;100.00
55490;BME280;44029;52.956;4.772;2022-11-20T06:00:47;101294.28;;;-0.36;100.00
55490;BME280;44029;52.956;4.772;2022-11-20T06:03:12;101287.25;;;-0.37;100.00
55490;BME280;44029;52.956;4.772;2022-11-20T06:05:37;101288.94;;;-0.44;100.00
55490;BME280;44029;52.956;4.772;2022-11-20T06:08:03;101290.75;;;-0.45;100.00
55490;BME280;44029;52.956;4.772;2022-11-20T06:10:28;101291.09;;;-0.48;100.00
55490;BME280;44029;52.956;4.772;2022-11-20T06:12:57;101276.28;;;-0.44;100.00
55490;BME280;44029;52.956;4.772;2022-11-20T06:15:22;101284.03;;;-0.49;100.00
55490;BME280;44029;52.956;4.772;2022-11-20T06:17:53;101272.09;;;-0.46;100.00
55490;BME280;44029;52.956;4.772;2022-11-20T06:20:19;101277.50;;;-0.46;100.00
55490;BME280;44029;52.956;4.772;2022-11-20T06:22:44;101276.28;;;-0.52;100.00
55490;BME280;44029;52.956;4.772;2022-11-20T06:25:09;101278.81;;;-0.50;100.00
55490;BME280;44029;52.956;4.772;2022-11-20T06:27:35;101273.59;;;-0.52;100.00
55490;BME280;44029;52.956;4.772;2022-11-20T06:30:00;101277.31;;;-0.53;100.00
55490;BME280;44029;52.956;4.772;2022-11-20T06:32:25;101273.41;;;-0.50;100.00
55490;BME280;44029;52.956;4.772;2022-11-20T06:34:50;101271.75;;;-0.51;100.00
55490;BME280;44029;52.956;4.772;2022-11-20T06:37:16;101268.91;;;-0.50;100.00
55490;BME280;44029;52.956;4.772;2022-11-20T06:39:41;101263.84;;;-0.53;100.00
55490;BME280;44029;52.956;4.772;2022-11-20T06:42:06;101260.31;;;-0.45;100.00
55490;BME280;44029;52.956;4.772;2022-11-20T06:44:32;101256.13;;;-0.48;100.00
55490;BME280;44029;52.956;4.772;2022-11-20T06:46:57;101252.56;;;-0.48;100.00
55490;BME280;44029;52.956;4.772;2022-11-20T06:49:23;101250.06;;;-0.50;100.00
55490;BME280;44029;52.956;4.772;2022-11-20T06:51:48;101251.91;;;-0.42;100.00
55490;BME280;44029;52.956;4.772;2022-11-20T06:54:13;101251.56;;;-0.39;100.00
55490;BME280;44029;52.956;4.772;2022-11-20T06:56:39;101251.56;;;-0.39;100.00
55490;BME280;44029;52.956;4.772;2022-11-20T06:59:05;101259.78;;;-0.24;100.00
55490;BME280;44029;52.956;4.772;2022-11-20T07:01:31;101253.41;;;-0.15;100.00
55490;BME280;44029;52.956;4.772;2022-11-20T07:03:56;101246.69;;;-0.19;100.00
55490;BME280;44029;52.956;4.772;2022-11-20T07:06:22;101247.53;;;-0.18;100.00
55490;BME280;44029;52.956;4.772;2022-11-20T07:08:47;101248.00;;;-0.15;100.00
55490;BME280;44029;52.956;4.772;2022-11-20T07:11:12;101240.09;;;-0.08;100.00
55490;BME280;44029;52.956;4.772;2022-11-20T07:13:38;101238.09;;;-0.14;100.00
55490;BME280;44029;52.956;4.772;2022-11-20T07:16:06;101230.69;;;-0.12;100.00
55490;BME280;44029;52.956;4.772;2022-11-20T07:18:32;101219.91;;;-0.12;100.00
55490;BME280;44029;52.956;4.772;2022-11-20T07:21:02;101224.63;;;-0.06;100.00
55490;BME280;44029;52.956;4.772;2022-11-20T07:23:27;101221.94;;;0.02;100.00
55490;BME280;44029;52.956;4.772;2022-11-20T07:25:53;101226.94;;;0.05;100.00
55490;BME280;44029;52.956;4.772;2022-11-20T07:28:18;101225.28;;;0.04;100.00
55490;BME280;44029;52.956;4.772;2022-11-20T07:30:49;101228.09;;;0.19;100.00
55490;BME280;44029;52.956;4.772;2022-11-20T07:33:15;101240.06;;;0.16;100.00
55490;BME280;44029;52.956;4.772;2022-11-20T07:35:40;101222.91;;;0.09;100.00
55490;BME280;44029;52.956;4.772;2022-11-20T07:38:06;101227.78;;;0.14;100.00
55490;BME280;44029;52.956;4.772;2022-11-20T07:40:31;101234.16;;;0.21;100.00
55490;BME280;44029;52.956;4.772;2022-11-20T07:42:56;101237.69;;;0.30;100.00
55490;BME280;44029;52.956;4.772;2022-11-20T07:45:23;101226.88;;;0.38;100.00
55490;BME280;44029;52.956;4.772;2022-11-20T07:47:49;101223.34;;;0.37;100.00
55490;BME280;44029;52.956;4.772;2022-11-20T07:50:15;101218.72;;;0.46;100.00
55490;BME280;44029;52.956;4.772;2022-11-20T07:52:41;101219.44;;;0.48;100.00
55490;BME280;44029;52.956;4.772;2022-11-20T07:55:08;101210.66;;;0.46;100.00
55490;BME280;44029;52.956;4.772;2022-11-20T07:57:34;101208.94;;;0.53;100.00
55490;BME280;44029;52.956;4.772;2022-11-20T07:59:59;101209.75;;;0.62;100.00
55490;BME280;44029;52.956;4.772;2022-11-20T08:02:25;101207.06;;;0.62;100.00
55490;BME280;44029;52.956;4.772;2022-11-20T08:04:50;101212.22;;;0.72;100.00
55490;BME280;44029;52.956;4.772;2022-11-20T08:07:15;101206.97;;;0.79;100.00
55490;BME280;44029;52.956;4.772;2022-11-20T08:09:40;101203.13;;;0.73;100.00
55490;BME280;44029;52.956;4.772;2022-11-20T08:12:06;101209.00;;;0.76;100.00
55490;BME280;44029;52.956;4.772;2022-11-20T08:14:50;101211.34;;;0.80;100.00
55490;BME280;44029;52.956;4.772;2022-11-20T08:17:15;101210.59;;;0.94;100.00
55490;BME280;44029;52.956;4.772;2022-11-20T08:19:40;101211.91;;;0.98;100.00
55490;BME280;44029;52.956;4.772;2022-11-20T08:22:06;101202.75;;;1.07;100.00
55490;BME280;44029;52.956;4.772;2022-11-20T08:24:31;101199.84;;;1.17;100.00
55490;BME280;44029;52.956;4.772;2022-11-20T08:26:58;101197.66;;;1.12;100.00
55490;BME280;44029;52.956;4.772;2022-11-20T08:29:24;101192.03;;;1.22;100.00
55490;BME280;44029;52.956;4.772;2022-11-20T08:31:49;101181.69;;;1.26;100.00
55490;BME280;44029;52.956;4.772;2022-11-20T08:34:15;101187.97;;;1.26;100.00
55490;BME280;44029;52.956;4.772;2022-11-20T08:36:40;101181.34;;;1.29;100.00
55490;BME280;44029;52.956;4.772;2022-11-20T08:39:05;101191.25;;;1.37;100.00
55490;BME280;44029;52.956;4.772;2022-11-20T08:41:31;101187.53;;;1.38;100.00
55490;BME280;44029;52.956;4.772;2022-11-20T08:44:02;101181.09;;;1.39;100.00
55490;BME280;44029;52.956;4.772;2022-11-20T08:46:35;101174.91;;;1.53;100.00
55490;BME280;44029;52.956;4.772;2022-11-20T08:49:05;101174.00;;;1.61;100.00
55490;BME280;44029;52.956;4.772;2022-11-20T08:51:32;101165.16;;;1.52;100.00
55490;BME280;44029;52.956;4.772;2022-11-20T08:53:57;101157.91;;;1.67;100.00
55490;BME280;44029;52.956;4.772;2022-11-20T08:56:23;101157.53;;;1.56;100.00
55490;BME280;44029;52.956;4.772;2022-11-20T08:58:50;101150.72;;;1.60;100.00
55490;BME280;44029;52.956;4.772;2022-11-20T09:01:15;101144.41;;;1.67;100.00
55490;BME280;44029;52.956;4.772;2022-11-20T09:03:41;101147.28;;;1.66;100.00
55490;BME280;44029;52.956;4.772;2022-11-20T09:06:07;101145.53;;;1.73;100.00
55490;BME280;44029;52.956;4.772;2022-11-20T09:08:33;101155.56;;;1.64;100.00
55490;BME280;44029;52.956;4.772;2022-11-20T09:10:59;101153.91;;;1.63;100.00
55490;BME280;44029;52.956;4.772;2022-11-20T09:13:26;101152.03;;;1.79;100.00
55490;BME280;44029;52.956;4.772;2022-11-20T09:15:56;101148.13;;;1.81;100.00
55490;BME280;44029;52.956;4.772;2022-11-20T09:18:23;101153.16;;;1.84;100.00
55490;BME280;44029;52.956;4.772;2022-11-20T09:20:49;101152.34;;;1.99;100.00
55490;BME280;44029;52.956;4.772;2022-11-20T09:23:14;101150.84;;;1.96;100.00
55490;BME280;44029;52.956;4.772;2022-11-20T09:25:40;101145.81;;;2.08;100.00
55490;BME280;44029;52.956;4.772;2022-11-20T09:28:05;101143.94;;;2.23;100.00
55490;BME280;44029;52.956;4.772;2022-11-20T09:30:30;101135.94;;;2.00;100.00
55490;BME280;44029;52.956;4.772;2022-11-20T09:32:56;101142.00;;;2.17;100.00
55490;BME280;44029;52.956;4.772;2022-11-20T09:35:22;101130.16;;;2.18;100.00
55490;BME280;44029;52.956;4.772;2022-11-20T09:37:47;101120.84;;;2.21;100.00
55490;BME280;44029;52.956;4.772;2022-11-20T09:40:22;101113.66;;;2.28;100.00
55490;BME280;44029;52.956;4.772;2022-11-20T09:43:08;101107.66;;;2.32;100.00
55490;BME280;44029;52.956;4.772;2022-11-20T09:46:00;101106.47;;;2.35;100.00
55490;BME280;44029;52.956;4.772;2022-11-20T09:48:42;101102.41;;;2.46;100.00
55490;BME280;44029;52.956;4.772;2022-11-20T09:56:27;101099.75;;;2.67;100.00
55490;BME280;44029;52.956;4.772;2022-11-20T09:58:57;101096.47;;;2.72;100.00
55490;BME280;44029;52.956;4.772;2022-11-20T10:01:32;101090.47;;;2.77;100.00
55490;BME280;44029;52.956;4.772;2022-11-20T10:04:06;101089.88;;;2.81;100.00
55490;BME280;44029;52.956;4.772;2022-11-20T10:06:51;101089.41;;;2.93;100.00
55490;BME280;44029;52.956;4.772;2022-11-20T10:09:34;101100.16;;;3.07;100.00
55490;BME280;44029;52.956;4.772;2022-11-20T10:17:12;101087.34;;;2.95;100.00
55490;BME280;44029;52.956;4.772;2022-11-20T10:19:49;101077.00;;;3.05;100.00
55490;BME280;44029;52.956;4.772;2022-11-20T10:22:22;101076.69;;;3.15;100.00
55490;BME280;44029;52.956;4.772;2022-11-20T10:25:06;101073.56;;;3.18;100.00
55490;BME280;44029;52.956;4.772;2022-11-20T10:27:56;101069.00;;;3.18;100.00
55490;BME280;44029;52.956;4.772;2022-11-20T10:30:28;101045.13;;;3.00;100.00
55490;BME280;44029;52.956;4.772;2022-11-20T10:33:06;101037.13;;;3.14;100.00
55490;BME280;44029;52.956;4.772;2022-11-20T10:35:43;101028.28;;;3.05;100.00
55490;BME280;44029;52.956;4.772;2022-11-20T10:38:21;101029.16;;;3.05;100.00
55490;BME280;44029;52.956;4.772;2022-11-20T10:40:53;101028.50;;;3.32;100.00
55490;BME280;44029;52.956;4.772;2022-11-20T10:43:39;101016.94;;;3.44;100.00
55490;BME280;44029;52.956;4.772;2022-11-20T10:46:09;101010.78;;;3.64;100.00
55490;BME280;44029;52.956;4.772;2022-11-20T10:48:38;101018.13;;;3.77;100.00
55490;BME280;44029;52.956;4.772;2022-11-20T10:56:51;100995.63;;;3.83;100.00
55490;BME280;44029;52.956;4.772;2022-11-20T10:59:41;100996.66;;;3.75;100.00
55490;BME280;44029;52.956;4.772;2022-11-20T11:04:54;100999.53;;;3.32;100.00
55490;BME280;44029;52.956;4.772;2022-11-20T11:07:27;100995.00;;;3.39;100.00
55490;BME280;44029;52.956;4.772;2022-11-20T11:09:56;100991.50;;;3.45;100.00
55490;BME280;44029;52.956;4.772;2022-11-20T11:12:27;100990.03;;;3.43;100.00
55490;BME280;44029;52.956;4.772;2022-11-20T11:14:55;100986.53;;;3.49;100.00
55490;BME280;44029;52.956;4.772;2022-11-20T11:17:34;100984.50;;;3.64;100.00
55490;BME280;44029;52.956;4.772;2022-11-20T11:22:28;100983.38;;;3.45;100.00
55490;BME280;44029;52.956;4.772;2022-11-20T11:24:54;100974.56;;;3.37;100.00
55490;BME280;44029;52.956;4.772;2022-11-20T11:27:20;100971.41;;;3.68;100.00
55490;BME280;44029;52.956;4.772;2022-11-20T11:29:45;100958.06;;;3.66;100.00
55490;BME280;44029;52.956;4.772;2022-11-20T11:32:14;100965.59;;;3.71;100.00
55490;BME280;44029;52.956;4.772;2022-11-20T11:34:40;100949.84;;;4.01;100.00
55490;BME280;44029;52.956;4.772;2022-11-20T11:37:13;100941.09;;;4.06;100.00
55490;BME280;44029;52.956;4.772;2022-11-20T11:39:41;100940.66;;;3.96;100.00
55490;BME280;44029;52.956;4.772;2022-11-20T11:42:16;100938.75;;;3.90;100.00
55490;BME280;44029;52.956;4.772;2022-11-20T11:44:46;100944.00;;;3.91;100.00
55490;BME280;44029;52.956;4.772;2022-11-20T11:50:18;100952.00;;;3.64;100.00
55490;BME280;44029;52.956;4.772;2022-11-20T11:53:07;100946.59;;;3.64;100.00
55490;BME280;44029;52.956;4.772;2022-11-20T11:55:38;100944.53;;;3.66;100.00
55490;BME280;44029;52.956;4.772;2022-11-20T12:01:04;100936.16;;;3.61;100.00
55490;BME280;44029;52.956;4.772;2022-11-20T12:03:40;100935.31;;;3.61;100.00
55490;BME280;44029;52.956;4.772;2022-11-20T12:06:14;100933.47;;;3.61;100.00
55490;BME280;44029;52.956;4.772;2022-11-20T12:08:51;100926.34;;;3.60;100.00
55490;BME280;44029;52.956;4.772;2022-11-20T12:11:24;100921.75;;;3.61;100.00
55490;BME280;44029;52.956;4.772;2022-11-20T12:14:18;100913.53;;;3.82;100.00
55490;BME280;44029;52.956;4.772;2022-11-20T12:16:50;100922.06;;;3.86;100.00
55490;BME280;44029;52.956;4.772;2022-11-20T12:19:16;100914.56;;;3.81;100.00
55490;BME280;44029;52.956;4.772;2022-11-20T12:30:23;100891.84;;;3.82;100.00
55490;BME280;44029;52.956;4.772;2022-11-20T12:38:39;100875.22;;;4.19;100.00
55490;BME280;44029;52.956;4.772;2022-11-20T12:45:01;100862.47;;;4.13;100.00
55490;BME280;44029;52.956;4.772;2022-11-20T12:50:49;100871.25;;;4.08;100.00
55490;BME280;44029;52.956;4.772;2022-11-20T13:04:48;100845.59;;;4.57;100.00
55490;BME280;44029;52.956;4.772;2022-11-20T13:07:12;100846.84;;;4.41;100.00
55490;BME280;44029;52.956;4.772;2022-11-20T13:09:45;100838.69;;;4.55;100.00
55490;BME280;44029;52.956;4.772;2022-11-20T13:12:16;100835.19;;;4.41;100.00
55490;BME280;44029;52.956;4.772;2022-11-20T13:17:40;100820.59;;;4.35;100.00
55490;BME280;44029;52.956;4.772;2022-11-20T13:20:16;100819.31;;;4.38;100.00
55490;BME280;44029;52.956;4.772;2022-11-20T13:22:45;100812.25;;;4.30;100.00
55490;BME280;44029;52.956;4.772;2022-11-20T13:25:25;100810.78;;;4.41;100.00
55490;BME280;44029;52.956;4.772;2022-11-20T13:27:51;100800.97;;;4.26;100.00
55490;BME280;44029;52.956;4.772;2022-11-20T13:30:19;100801.59;;;4.35;100.00
55490;BME280;44029;52.956;4.772;2022-11-20T13:32:56;100796.81;;;4.37;100.00
55490;BME280;44029;52.956;4.772;2022-11-20T13:35:53;100793.88;;;4.32;100.00
55490;BME280;44029;52.956;4.772;2022-11-20T13:38:19;100789.47;;;4.31;100.00
55490;BME280;44029;52.956;4.772;2022-11-20T13:40:56;100793.47;;;4.35;100.00
55490;BME280;44029;52.956;4.772;2022-11-20T13:43:37;100784.88;;;4.45;100.00
55490;BME280;44029;52.956;4.772;2022-11-20T13:46:06;100790.34;;;4.32;100.00
55490;BME280;44029;52.956;4.772;2022-11-20T13:48:34;100793.00;;;4.58;100.00
55490;BME280;44029;52.956;4.772;2022-11-20T14:01:42;100763.41;;;4.23;100.00
55490;BME280;44029;52.956;4.772;2022-11-20T14:04:15;100755.53;;;4.15;100.00
55490;BME280;44029;52.956;4.772;2022-11-20T14:06:46;100755.94;;;4.19;100.00
55490;BME280;44029;52.956;4.772;2022-11-20T14:09:25;100756.94;;;4.31;100.00
55490;BME280;44029;52.956;4.772;2022-11-20T14:11:50;100745.28;;;4.17;100.00